Machida, Japan
Current Conditions -  °F | °C
As of 5:38 PM on Friday 31 Oct 2014 (Local Time) from RJTY Reporting Station
Drizzle Drizzle  
Wind Chill: 18°   Ceiling: Unl
Heat Index: 18°   Visibility: 9mi
Dew Point: 15°   Wind: 1mph
Humidity: 83%   Direction: 10°N
Pressure: 30.25"   Gusts: NA
Location:  35.56°N, 139.43°E
Report Text: RJTY 310838Z AUTO 01001KT 9SM -DZ FEW032 18/15 A3025 RMK AO2 RAB0804E0829DZB0801E0804B0829E0835
Loading
Personal Weather Stations






























Interactive Weather Map
Tropical Storm Tracking
New forecast layout! Learn more

10-Day Weather Forecast

Advertisements
Track Severe Weather on mobile